createdAt,value
2017-05-16T00:00:10.546Z,18.88
2017-05-16T00:00:51.069Z,18.78
2017-05-16T00:01:31.580Z,18.84
2017-05-16T00:02:12.116Z,18.9
2017-05-16T00:02:52.649Z,18.78
2017-05-16T00:03:33.154Z,18.85
2017-05-16T00:04:13.685Z,18.94
2017-05-16T00:04:54.206Z,18.91
2017-05-16T00:05:34.749Z,18.9
2017-05-16T00:06:15.297Z,18.95
2017-05-16T00:06:55.811Z,18.85
2017-05-16T00:07:36.342Z,18.8
2017-05-16T00:08:16.858Z,18.88
2017-05-16T00:08:57.407Z,18.85
2017-05-16T00:09:37.915Z,18.88
2017-05-16T00:10:18.434Z,18.88
2017-05-16T00:10:58.930Z,18.9
2017-05-16T00:11:39.453Z,18.85
2017-05-16T00:12:19.967Z,18.82
2017-05-16T00:13:00.482Z,18.87
2017-05-16T00:13:41.003Z,18.82
2017-05-16T00:14:21.560Z,18.84
2017-05-16T00:15:02.078Z,18.81
2017-05-16T00:15:42.612Z,18.73
2017-05-16T00:16:23.141Z,18.87
2017-05-16T00:17:03.659Z,18.8
2017-05-16T00:17:44.177Z,18.76
2017-05-16T00:18:24.692Z,18.72
2017-05-16T00:19:05.210Z,18.87
2017-05-16T00:19:45.753Z,18.75
2017-05-16T00:20:26.281Z,18.7
2017-05-16T00:21:06.800Z,18.7
2017-05-16T00:21:47.321Z,18.75
2017-05-16T00:22:27.861Z,18.78
2017-05-16T00:23:08.353Z,18.73
2017-05-16T00:23:48.870Z,18.66
2017-05-16T00:24:29.386Z,18.65
2017-05-16T00:25:09.920Z,18.62
2017-05-16T00:25:50.415Z,18.58
2017-05-16T00:26:30.947Z,18.7
2017-05-16T00:27:11.470Z,18.7
2017-05-16T00:27:51.992Z,18.7
2017-05-16T00:28:32.510Z,18.67
2017-05-16T00:29:13.021Z,18.78
2017-05-16T00:29:53.540Z,18.69
2017-05-16T00:30:34.075Z,18.69
2017-05-16T00:31:14.595Z,18.7
2017-05-16T00:31:55.115Z,18.72
2017-05-16T00:32:35.641Z,18.62
2017-05-16T00:33:16.158Z,18.62
2017-05-16T00:33:56.666Z,18.67
2017-05-16T00:34:37.179Z,18.66
2017-05-16T00:35:17.661Z,18.7
2017-05-16T00:35:58.180Z,18.66
2017-05-16T00:36:38.725Z,18.57
2017-05-16T00:37:19.223Z,18.6
2017-05-16T00:37:59.752Z,18.55
2017-05-16T00:38:40.274Z,18.55
2017-05-16T00:39:20.803Z,18.63
2017-05-16T00:40:01.323Z,18.52
2017-05-16T00:40:41.859Z,18.54
2017-05-16T00:41:22.371Z,18.65
2017-05-16T00:42:02.920Z,18.62
2017-05-16T00:42:43.418Z,18.63
2017-05-16T00:43:23.943Z,18.63
2017-05-16T00:44:04.476Z,18.63
2017-05-16T00:44:44.995Z,18.57
2017-05-16T00:45:25.516Z,18.54
2017-05-16T00:46:06.033Z,18.57
2017-05-16T00:46:46.538Z,18.54
2017-05-16T00:47:27.066Z,18.57
2017-05-16T00:48:07.568Z,18.57
2017-05-16T00:48:48.085Z,18.62
2017-05-16T00:49:28.610Z,18.66
2017-05-16T00:50:09.121Z,18.54
2017-05-16T00:50:49.637Z,18.57
2017-05-16T00:51:30.190Z,18.58
2017-05-16T00:52:10.638Z,18.57
2017-05-16T00:52:51.114Z,18.65
2017-05-16T00:53:31.617Z,18.55
2017-05-16T00:54:12.131Z,18.58
2017-05-16T00:54:52.650Z,18.54
2017-05-16T00:55:33.157Z,18.58
2017-05-16T00:56:13.678Z,18.5
2017-05-16T00:56:54.205Z,18.57
2017-05-16T00:57:34.732Z,18.54
2017-05-16T00:58:15.255Z,18.55
2017-05-16T00:58:55.779Z,18.57
2017-05-16T00:59:36.305Z,18.63
2017-05-16T01:00:16.824Z,18.52
2017-05-16T01:00:57.353Z,18.62
2017-05-16T01:01:37.883Z,18.57
2017-05-16T01:02:18.414Z,18.54
2017-05-16T01:02:58.949Z,18.55
2017-05-16T01:03:39.478Z,18.55
2017-05-16T01:04:19.987Z,18.52
2017-05-16T01:05:00.511Z,18.5
2017-05-16T01:05:41.101Z,18.54
2017-05-16T01:06:21.632Z,18.52
2017-05-16T01:07:02.154Z,18.47
2017-05-16T01:07:42.674Z,18.52
2017-05-16T01:08:23.186Z,18.47
2017-05-16T01:09:03.755Z,18.5
2017-05-16T01:09:44.289Z,18.57
2017-05-16T01:10:24.803Z,18.5
2017-05-16T01:11:05.310Z,18.52
2017-05-16T01:11:45.834Z,18.5
2017-05-16T01:12:26.352Z,18.51
2017-05-16T01:13:06.907Z,18.51
2017-05-16T01:13:47.393Z,18.42
2017-05-16T01:14:27.897Z,18.36
2017-05-16T01:15:08.403Z,18.52
2017-05-16T01:15:48.877Z,18.37
2017-05-16T01:16:29.397Z,18.5
2017-05-16T01:17:09.915Z,18.42
2017-05-16T01:17:50.442Z,18.39
2017-05-16T01:18:30.959Z,18.39
2017-05-16T01:19:11.502Z,18.42
2017-05-16T01:19:52.029Z,18.47
2017-05-16T01:20:32.556Z,18.42
2017-05-16T01:21:13.086Z,18.42
2017-05-16T01:21:53.593Z,18.39
2017-05-16T01:22:34.108Z,18.36
2017-05-16T01:23:14.618Z,18.48
2017-05-16T01:23:55.146Z,18.45
2017-05-16T01:24:35.662Z,18.35
2017-05-16T01:25:16.215Z,18.35
2017-05-16T01:25:56.705Z,18.27
2017-05-16T01:26:37.244Z,18.3
2017-05-16T01:27:17.767Z,18.37
2017-05-16T01:27:58.272Z,18.25
2017-05-16T01:28:38.801Z,18.26
2017-05-16T01:29:19.352Z,18.3
2017-05-16T01:29:59.862Z,18.3
2017-05-16T01:30:40.376Z,18.33
2017-05-16T01:31:20.913Z,18.29
2017-05-16T01:32:01.386Z,18.29
2017-05-16T01:32:41.883Z,18.18
2017-05-16T01:33:22.404Z,18.26
2017-05-16T01:34:02.911Z,18.25
2017-05-16T01:34:43.436Z,18.26
2017-05-16T01:35:23.961Z,18.3
2017-05-16T01:36:04.495Z,18.3
2017-05-16T01:36:44.981Z,18.25
2017-05-16T01:37:25.437Z,18.21
2017-05-16T01:38:05.952Z,18.26
2017-05-16T01:38:46.480Z,18.2
2017-05-16T01:39:27.057Z,18.27
2017-05-16T01:40:07.605Z,18.26
2017-05-16T01:40:48.133Z,18.26
2017-05-16T01:41:28.653Z,18.25
2017-05-16T01:42:09.174Z,18.2
2017-05-16T01:42:49.691Z,18.25
2017-05-16T01:43:30.204Z,18.2
2017-05-16T01:44:10.676Z,18.2
2017-05-16T01:44:51.173Z,18.21
2017-05-16T01:45:31.668Z,18.14
2017-05-16T01:46:12.154Z,18.18
2017-05-16T01:46:52.630Z,18.17
2017-05-16T01:47:33.151Z,18.12
2017-05-16T01:48:13.645Z,18.1
2017-05-16T01:48:54.130Z,18.1
2017-05-16T01:49:34.668Z,18.12
2017-05-16T01:50:15.213Z,18.1
2017-05-16T01:50:55.680Z,18.02
2017-05-16T01:51:36.177Z,17.97
2017-05-16T01:52:16.671Z,17.96
2017-05-16T01:52:57.204Z,17.99
2017-05-16T01:53:37.698Z,18.02
2017-05-16T01:54:18.181Z,18.08
2017-05-16T01:54:58.699Z,18.08
2017-05-16T01:55:39.155Z,18.07
2017-05-16T01:56:19.670Z,18.03
2017-05-16T01:57:00.180Z,17.96
2017-05-16T01:57:40.700Z,17.99
2017-05-16T01:58:21.216Z,18.02
2017-05-16T01:59:01.738Z,18.03
2017-05-16T01:59:42.263Z,18.12
2017-05-16T02:00:22.787Z,17.96
2017-05-16T02:01:03.301Z,17.96
2017-05-16T02:01:43.827Z,18.03
2017-05-16T02:02:24.351Z,18
2017-05-16T02:03:04.874Z,17.92
2017-05-16T02:03:45.404Z,17.97
2017-05-16T02:04:25.918Z,17.87
2017-05-16T02:05:06.434Z,17.84
2017-05-16T02:05:46.945Z,17.87
2017-05-16T02:06:27.502Z,17.95
2017-05-16T02:07:08.020Z,17.87
2017-05-16T02:07:48.553Z,17.92
2017-05-16T02:08:29.074Z,17.95
2017-05-16T02:09:09.599Z,18.02
2017-05-16T02:09:50.174Z,17.97
2017-05-16T02:10:30.691Z,17.95
2017-05-16T02:11:11.204Z,17.99
2017-05-16T02:11:51.737Z,17.93
2017-05-16T02:12:32.268Z,18.03
2017-05-16T02:13:12.788Z,17.96
2017-05-16T02:13:53.303Z,18
2017-05-16T02:14:33.818Z,17.96
2017-05-16T02:15:14.344Z,17.77
2017-05-16T02:15:54.922Z,17.82
2017-05-16T02:16:35.469Z,17.77
2017-05-16T02:17:15.992Z,17.71
2017-05-16T02:17:56.538Z,17.81
2017-05-16T02:18:37.064Z,17.77
2017-05-16T02:19:17.562Z,17.77
2017-05-16T02:19:58.077Z,17.86
2017-05-16T02:20:38.597Z,17.86
2017-05-16T02:21:19.120Z,17.95
2017-05-16T02:21:59.638Z,17.87
2017-05-16T02:22:40.163Z,17.86
2017-05-16T02:23:20.671Z,17.9
2017-05-16T02:24:01.200Z,17.89
2017-05-16T02:24:41.721Z,17.86
2017-05-16T02:25:22.227Z,17.9
2017-05-16T02:26:02.744Z,17.81
2017-05-16T02:26:43.261Z,17.78
2017-05-16T02:27:23.753Z,17.81
2017-05-16T02:28:04.311Z,17.77
2017-05-16T02:28:44.747Z,17.79
2017-05-16T02:29:25.255Z,17.82
2017-05-16T02:30:05.768Z,17.82
2017-05-16T02:30:46.268Z,17.81
2017-05-16T02:31:26.757Z,17.81
2017-05-16T02:32:07.261Z,17.79
2017-05-16T02:32:47.751Z,17.75
2017-05-16T02:33:28.286Z,17.79
2017-05-16T02:34:08.807Z,17.7
2017-05-16T02:34:49.320Z,17.68
2017-05-16T02:35:29.897Z,17.7
2017-05-16T02:36:10.418Z,17.66
2017-05-16T02:36:50.941Z,17.7
2017-05-16T02:37:31.454Z,17.79
2017-05-16T02:38:11.969Z,17.75
2017-05-16T02:38:52.474Z,17.78
2017-05-16T02:39:32.977Z,17.79
2017-05-16T02:40:13.481Z,17.81
2017-05-16T02:40:53.998Z,17.78
2017-05-16T02:41:34.514Z,17.75
2017-05-16T02:42:15.028Z,17.77
2017-05-16T02:42:55.537Z,17.72
2017-05-16T02:43:36.083Z,17.74
2017-05-16T02:44:16.604Z,17.81
2017-05-16T02:44:57.127Z,17.78
2017-05-16T02:45:37.699Z,17.7
2017-05-16T02:46:18.210Z,17.74
2017-05-16T02:46:58.714Z,17.75
2017-05-16T02:47:39.235Z,17.74
2017-05-16T02:48:19.751Z,17.66
2017-05-16T02:49:00.277Z,17.58
2017-05-16T02:49:40.804Z,17.55
2017-05-16T02:50:21.337Z,17.62
2017-05-16T02:51:01.852Z,17.58
2017-05-16T02:51:42.373Z,17.52
2017-05-16T02:52:22.894Z,17.56
2017-05-16T02:53:03.415Z,17.52
2017-05-16T02:53:43.966Z,17.54
2017-05-16T02:54:24.474Z,17.59
2017-05-16T02:55:04.974Z,17.62
2017-05-16T02:55:45.475Z,17.52
2017-05-16T02:56:26.010Z,17.56
2017-05-16T02:57:06.526Z,17.56
2017-05-16T02:57:47.051Z,17.59
2017-05-16T02:58:27.549Z,17.52
2017-05-16T02:59:08.055Z,17.52
2017-05-16T02:59:48.591Z,17.55
2017-05-16T03:00:29.109Z,17.55
2017-05-16T03:01:09.625Z,17.51
2017-05-16T03:01:50.140Z,17.51
2017-05-16T03:02:30.658Z,17.46
2017-05-16T03:03:11.185Z,17.41
2017-05-16T03:05:09.336Z,17.46
2017-05-16T03:05:49.861Z,17.41
2017-05-16T03:06:30.381Z,17.4
2017-05-16T03:07:10.931Z,17.51
2017-05-16T03:07:51.423Z,17.49
2017-05-16T03:08:31.944Z,17.51
2017-05-16T03:09:12.458Z,17.48
2017-05-16T03:09:52.976Z,17.52
2017-05-16T03:10:33.488Z,17.52
2017-05-16T03:11:14.023Z,17.48
2017-05-16T03:11:54.553Z,17.41
2017-05-16T03:12:35.062Z,17.51
2017-05-16T03:13:15.585Z,17.46
2017-05-16T03:13:56.093Z,17.49
2017-05-16T03:14:36.618Z,17.48
2017-05-16T03:15:17.134Z,17.52
2017-05-16T03:15:57.658Z,17.41
2017-05-16T03:16:38.200Z,17.43
2017-05-16T03:17:18.713Z,17.54
2017-05-16T03:17:59.229Z,17.48
2017-05-16T03:18:39.754Z,17.55
2017-05-16T03:19:20.278Z,17.51
2017-05-16T03:20:00.795Z,17.44
2017-05-16T03:20:41.311Z,17.46
2017-05-16T03:21:21.827Z,17.48
2017-05-16T03:22:02.353Z,17.48
2017-05-16T03:22:42.873Z,17.41
2017-05-16T03:23:23.387Z,17.48
2017-05-16T03:24:03.896Z,17.41
2017-05-16T03:24:44.429Z,17.46
2017-05-16T03:25:24.941Z,17.49
2017-05-16T03:26:05.454Z,17.41
2017-05-16T03:26:45.978Z,17.51
2017-05-16T03:27:26.494Z,17.49
2017-05-16T03:28:07.030Z,17.48
2017-05-16T03:28:47.552Z,17.46
2017-05-16T03:29:28.077Z,17.52
2017-05-16T03:30:08.590Z,17.48
2017-05-16T03:30:49.097Z,17.48
2017-05-16T03:31:29.638Z,17.37
2017-05-16T03:32:10.132Z,17.51
2017-05-16T03:32:50.655Z,17.44
2017-05-16T03:33:31.167Z,17.51
2017-05-16T03:34:11.675Z,17.43
2017-05-16T03:34:52.188Z,17.49
2017-05-16T03:35:32.709Z,17.58
2017-05-16T03:36:13.246Z,17.52
2017-05-16T03:36:53.769Z,17.62
2017-05-16T03:37:34.292Z,17.58
2017-05-16T03:38:14.799Z,17.52
2017-05-16T03:38:55.322Z,17.56
2017-05-16T03:39:35.840Z,17.52
2017-05-16T03:40:16.353Z,17.58
2017-05-16T03:40:56.888Z,17.49
2017-05-16T03:41:37.395Z,17.49
2017-05-16T03:42:17.912Z,17.4
2017-05-16T03:42:58.428Z,17.55
2017-05-16T03:43:38.948Z,17.48
2017-05-16T03:44:19.472Z,17.55
2017-05-16T03:44:59.996Z,17.49
2017-05-16T03:45:40.522Z,17.49
2017-05-16T03:46:21.054Z,17.49
2017-05-16T03:47:01.561Z,17.49
2017-05-16T03:47:42.091Z,17.44
2017-05-16T03:48:22.607Z,17.46
2017-05-16T03:49:03.139Z,17.48
2017-05-16T03:49:43.664Z,17.56
2017-05-16T03:50:24.189Z,17.49
2017-05-16T03:51:04.716Z,17.52
2017-05-16T03:51:45.242Z,17.49
2017-05-16T03:52:25.759Z,17.49
2017-05-16T03:53:06.279Z,17.46
2017-05-16T03:53:46.801Z,17.43
2017-05-16T03:54:27.315Z,17.37
2017-05-16T03:55:07.838Z,17.48
2017-05-16T03:55:48.361Z,17.48
2017-05-16T03:56:28.868Z,17.49
2017-05-16T03:57:09.393Z,17.46
2017-05-16T03:57:49.905Z,17.48
2017-05-16T03:58:30.415Z,17.38
2017-05-16T03:59:10.930Z,17.49
2017-05-16T03:59:51.438Z,17.44
2017-05-16T04:00:31.958Z,17.48
2017-05-16T04:01:12.476Z,17.43
2017-05-16T04:01:53.000Z,17.48
2017-05-16T04:02:33.516Z,17.46
2017-05-16T04:03:14.036Z,17.54
2017-05-16T04:03:54.554Z,17.48
2017-05-16T04:04:35.081Z,17.41
2017-05-16T04:05:15.606Z,17.48
2017-05-16T04:05:56.109Z,17.51
2017-05-16T04:06:36.633Z,17.54
2017-05-16T04:07:17.154Z,17.54
2017-05-16T04:07:57.674Z,17.51
2017-05-16T04:08:38.187Z,17.49
2017-05-16T04:09:18.693Z,17.43
2017-05-16T04:09:59.219Z,17.49
2017-05-16T04:10:39.730Z,17.52
2017-05-16T04:11:20.245Z,17.59
2017-05-16T04:12:00.739Z,17.52
2017-05-16T04:12:41.259Z,17.41
2017-05-16T04:13:21.763Z,17.51
2017-05-16T04:14:02.289Z,17.49
2017-05-16T04:14:42.805Z,17.54
2017-05-16T04:15:23.338Z,17.55
2017-05-16T04:16:03.859Z,17.51
2017-05-16T04:16:44.380Z,17.55
2017-05-16T04:17:24.906Z,17.58
2017-05-16T04:18:05.424Z,17.55
2017-05-16T04:18:45.958Z,17.49
2017-05-16T04:19:26.482Z,17.59
2017-05-16T04:20:07.000Z,17.52
2017-05-16T04:20:47.531Z,17.55
2017-05-16T04:21:28.042Z,17.54
2017-05-16T04:22:08.567Z,17.54
2017-05-16T04:22:49.077Z,17.49
2017-05-16T04:23:29.598Z,17.54
2017-05-16T04:24:10.114Z,17.51
2017-05-16T04:24:50.657Z,17.58
2017-05-16T04:25:31.144Z,17.55
2017-05-16T04:26:11.662Z,17.66
2017-05-16T04:26:52.176Z,17.64
2017-05-16T04:27:32.683Z,17.77
2017-05-16T04:28:13.221Z,17.86
2017-05-16T04:28:53.743Z,17.87
2017-05-16T04:29:34.258Z,18.02
2017-05-16T04:30:14.778Z,17.99
2017-05-16T04:30:55.298Z,17.89
2017-05-16T04:31:35.814Z,17.9
2017-05-16T04:32:16.333Z,17.89
2017-05-16T04:32:56.881Z,17.95
2017-05-16T04:33:37.397Z,17.86
2017-05-16T04:34:17.914Z,17.87
2017-05-16T04:34:58.448Z,17.86
2017-05-16T04:35:38.960Z,17.84
2017-05-16T04:36:19.468Z,17.86
2017-05-16T04:36:59.988Z,17.86
2017-05-16T04:37:40.513Z,17.86
2017-05-16T04:38:21.028Z,17.84
2017-05-16T04:39:01.552Z,17.75
2017-05-16T04:39:42.068Z,17.71
2017-05-16T04:40:22.598Z,17.66
2017-05-16T04:41:03.121Z,17.71
2017-05-16T04:41:43.637Z,17.66
2017-05-16T04:42:24.158Z,17.72
2017-05-16T04:43:04.669Z,17.74
2017-05-16T04:43:45.219Z,17.72
2017-05-16T04:44:25.740Z,17.79
2017-05-16T04:45:06.257Z,18.02
2017-05-16T04:45:46.780Z,18.21
2017-05-16T04:46:27.298Z,18.41
2017-05-16T04:47:07.826Z,18.36
2017-05-16T04:47:48.375Z,18.25
2017-05-16T04:48:28.910Z,18.1
2017-05-16T04:49:09.402Z,18.08
2017-05-16T04:49:49.946Z,18.1
2017-05-16T04:50:30.447Z,17.96
2017-05-16T04:51:10.904Z,18.03
2017-05-16T04:51:51.412Z,18.1
2017-05-16T04:52:31.986Z,18.07
2017-05-16T04:53:12.481Z,18.03
2017-05-16T04:53:53.027Z,18.02
2017-05-16T04:54:33.497Z,17.96
2017-05-16T04:55:13.975Z,18
2017-05-16T04:55:54.564Z,17.93
2017-05-16T04:56:35.036Z,17.99
2017-05-16T04:57:15.578Z,17.96
2017-05-16T04:57:56.095Z,18
2017-05-16T04:58:36.560Z,18.07
2017-05-16T04:59:17.093Z,18.08
2017-05-16T04:59:57.560Z,18.17
2017-05-16T05:00:38.043Z,18.12
2017-05-16T05:01:18.593Z,18.17
2017-05-16T05:01:59.083Z,18.07
2017-05-16T05:02:39.575Z,18.12
2017-05-16T05:03:20.199Z,17.97
2017-05-16T05:04:00.727Z,17.99
2017-05-16T05:04:41.260Z,18.1
2017-05-16T05:05:21.779Z,18.07
2017-05-16T05:06:02.293Z,18.1
2017-05-16T05:06:42.763Z,18.12
2017-05-16T05:07:23.275Z,18.21
2017-05-16T05:08:03.726Z,18.23
2017-05-16T05:08:44.202Z,18.29
2017-05-16T05:09:24.706Z,18.18
2017-05-16T05:10:05.197Z,18.26
2017-05-16T05:10:45.738Z,18.27
2017-05-16T05:11:26.191Z,18.3
2017-05-16T05:12:06.714Z,18.33
2017-05-16T05:12:47.322Z,18.29
2017-05-16T05:13:27.836Z,18.35
2017-05-16T05:14:08.287Z,18.36
2017-05-16T05:14:48.817Z,18.32
2017-05-16T05:15:29.280Z,18.27
2017-05-16T05:16:09.772Z,18.23
2017-05-16T05:16:50.302Z,18.32
2017-05-16T05:17:30.770Z,18.32
2017-05-16T05:18:11.839Z,18.3
2017-05-16T05:18:52.384Z,18.29
2017-05-16T05:19:32.851Z,18.32
2017-05-16T05:20:14.025Z,18.29
2017-05-16T05:20:54.465Z,18.39
2017-05-16T05:21:34.969Z,18.45
2017-05-16T05:22:15.468Z,18.21
2017-05-16T05:22:55.970Z,18.2
2017-05-16T05:23:36.507Z,18.18
2017-05-16T05:24:17.242Z,18.21
2017-05-16T05:24:57.716Z,18.3
2017-05-16T05:25:38.233Z,18.33
2017-05-16T05:26:19.708Z,18.39
2017-05-16T05:27:00.130Z,18.36
2017-05-16T05:27:40.842Z,18.39
2017-05-16T05:28:21.356Z,18.36
2017-05-16T05:29:02.084Z,18.42
2017-05-16T05:29:42.367Z,18.42
2017-05-16T05:30:22.938Z,18.36
2017-05-16T05:31:03.364Z,18.44
2017-05-16T05:31:43.876Z,18.44
2017-05-16T05:32:24.355Z,18.37
2017-05-16T05:33:05.720Z,18.42
2017-05-16T05:33:46.206Z,18.54
2017-05-16T05:34:26.732Z,18.54
2017-05-16T05:35:07.226Z,18.5
2017-05-16T05:35:47.708Z,18.48
2017-05-16T05:36:28.705Z,18.54
2017-05-16T05:37:09.270Z,18.57
2017-05-16T05:37:50.733Z,18.63
2017-05-16T05:38:31.286Z,18.66
2017-05-16T05:39:11.788Z,18.67
2017-05-16T05:39:52.289Z,18.67
2017-05-16T05:40:32.824Z,18.76
2017-05-16T05:41:13.356Z,18.84
2017-05-16T05:41:53.804Z,18.66
2017-05-16T05:42:34.441Z,18.63
2017-05-16T05:43:15.003Z,18.73
2017-05-16T05:43:55.913Z,18.84
2017-05-16T05:44:36.379Z,18.69
2017-05-16T05:45:16.916Z,18.88
2017-05-16T05:45:57.763Z,18.73
2017-05-16T05:46:38.879Z,18.88
2017-05-16T05:47:19.618Z,19.02
2017-05-16T05:48:00.121Z,19.25
2017-05-16T05:48:40.600Z,19.39
2017-05-16T05:49:21.138Z,19.54
2017-05-16T05:50:01.599Z,19.71
2017-05-16T05:50:42.100Z,19.73
2017-05-16T05:51:22.601Z,19.74
2017-05-16T05:52:03.090Z,19.8
2017-05-16T05:52:43.582Z,19.98
2017-05-16T05:53:24.082Z,20.03
2017-05-16T05:54:04.597Z,19.95
2017-05-16T05:54:45.104Z,19.91
2017-05-16T05:55:25.665Z,20.18
2017-05-16T05:56:06.093Z,20.13
2017-05-16T05:56:46.637Z,20.13
2017-05-16T05:57:27.078Z,20.1
2017-05-16T05:58:07.748Z,20.21
2017-05-16T05:58:48.231Z,20.28
2017-05-16T05:59:28.710Z,20.42
2017-05-16T06:00:09.207Z,20.51
2017-05-16T06:00:49.721Z,20.57
2017-05-16T06:01:30.227Z,20.73
2017-05-16T06:02:10.736Z,20.79
2017-05-16T06:02:51.232Z,20.72
2017-05-16T06:03:31.796Z,20.57
2017-05-16T06:04:12.284Z,20.7
2017-05-16T06:04:52.761Z,20.84
2017-05-16T06:05:33.266Z,20.92
2017-05-16T06:06:13.768Z,21.04
2017-05-16T06:06:54.221Z,21.13
2017-05-16T06:07:34.707Z,21.14
2017-05-16T06:08:15.193Z,21.28
2017-05-16T06:08:55.734Z,21.17
2017-05-16T06:09:36.217Z,21.29
2017-05-16T06:10:16.747Z,21.29
2017-05-16T06:10:57.231Z,21.42
2017-05-16T06:11:37.671Z,21.54
2017-05-16T06:12:18.177Z,21.54
2017-05-16T06:12:58.690Z,21.65
2017-05-16T06:13:39.181Z,21.72
2017-05-16T06:14:20.141Z,21.8
2017-05-16T06:15:00.637Z,21.77
2017-05-16T06:15:41.115Z,21.8
2017-05-16T06:16:21.605Z,21.74
2017-05-16T06:17:02.158Z,21.77
2017-05-16T06:17:42.656Z,21.74
2017-05-16T06:18:23.128Z,21.69
2017-05-16T06:19:03.597Z,21.65
2017-05-16T06:19:44.113Z,21.8
2017-05-16T06:20:24.580Z,21.69
2017-05-16T06:21:05.112Z,21.79
2017-05-16T06:21:45.638Z,21.79
2017-05-16T06:22:26.100Z,21.8
2017-05-16T06:23:06.624Z,21.79
2017-05-16T06:23:47.097Z,21.77
2017-05-16T06:24:27.635Z,21.88
2017-05-16T06:25:08.077Z,21.82
2017-05-16T06:25:48.586Z,21.92
2017-05-16T06:26:29.066Z,21.84
2017-05-16T06:27:09.574Z,21.83
2017-05-16T06:27:50.114Z,21.77
2017-05-16T06:28:30.590Z,21.67
2017-05-16T06:29:11.121Z,21.71
2017-05-16T06:29:51.644Z,21.77
2017-05-16T06:30:32.135Z,21.72
2017-05-16T06:31:12.618Z,21.65
2017-05-16T06:31:53.161Z,21.62
2017-05-16T06:32:33.652Z,21.67
2017-05-16T06:33:14.410Z,21.74
2017-05-16T06:33:54.869Z,21.69
2017-05-16T06:34:35.343Z,21.83
2017-05-16T06:35:15.863Z,21.86
2017-05-16T06:35:56.342Z,21.91
2017-05-16T06:36:36.869Z,21.8
2017-05-16T06:37:17.380Z,21.72
2017-05-16T06:37:57.867Z,21.65
2017-05-16T06:38:38.342Z,21.58
2017-05-16T06:39:18.864Z,21.56
2017-05-16T06:39:59.741Z,21.65
2017-05-16T06:40:40.248Z,21.71
2017-05-16T06:41:21.583Z,21.75
2017-05-16T06:42:02.101Z,21.91
2017-05-16T06:42:42.587Z,21.9
2017-05-16T06:43:23.134Z,21.98
2017-05-16T06:44:04.125Z,21.98
2017-05-16T06:44:44.614Z,22.05
2017-05-16T06:45:25.101Z,21.99
2017-05-16T06:46:05.578Z,22
2017-05-16T06:46:46.116Z,22.02
2017-05-16T06:47:26.605Z,21.99
2017-05-16T06:48:07.117Z,22.06
2017-05-16T06:48:47.648Z,22.02
2017-05-16T06:49:28.133Z,22.06
2017-05-16T06:50:08.618Z,22
2017-05-16T06:50:49.189Z,22.1
2017-05-16T06:51:29.632Z,22.15
2017-05-16T06:52:10.119Z,22.35
2017-05-16T06:52:50.648Z,22.4
2017-05-16T06:53:31.130Z,22.42
2017-05-16T06:54:11.687Z,22.4
2017-05-16T06:54:52.134Z,22.47
2017-05-16T06:55:32.660Z,22.6
2017-05-16T06:56:13.185Z,22.64
2017-05-16T06:56:53.684Z,22.65
2017-05-16T06:57:34.192Z,22.7
2017-05-16T06:58:14.635Z,22.77
2017-05-16T06:58:55.182Z,22.9
2017-05-16T06:59:35.677Z,22.82
2017-05-16T07:00:16.195Z,22.86
2017-05-16T07:00:56.625Z,22.85
2017-05-16T07:01:37.113Z,22.98
2017-05-16T07:02:17.631Z,23
2017-05-16T07:02:58.118Z,23.09
2017-05-16T07:03:38.637Z,23.12
2017-05-16T07:04:19.084Z,23.07
2017-05-16T07:04:59.592Z,23.12
2017-05-16T07:05:40.081Z,23.19
2017-05-16T07:06:20.553Z,23.23
2017-05-16T07:07:01.112Z,23.23
2017-05-16T07:07:41.613Z,23.22
2017-05-16T07:08:22.077Z,23.17
2017-05-16T07:09:02.574Z,23.1
2017-05-16T07:09:43.120Z,23.28
2017-05-16T07:10:23.563Z,23.35
2017-05-16T07:11:04.064Z,23.35
2017-05-16T07:11:44.574Z,23.42
2017-05-16T07:12:25.078Z,23.31
2017-05-16T07:13:05.529Z,23.31
2017-05-16T07:13:46.009Z,23.16
2017-05-16T07:14:26.547Z,23.2
2017-05-16T07:15:07.012Z,23.22
2017-05-16T07:15:47.560Z,23.35
2017-05-16T07:16:28.055Z,23.38
2017-05-16T07:17:08.553Z,23.48
2017-05-16T07:17:49.059Z,23.35
2017-05-16T07:18:29.542Z,23.47
2017-05-16T07:19:10.053Z,23.48
2017-05-16T07:19:50.572Z,23.47
2017-05-16T07:20:31.066Z,23.54
2017-05-16T07:21:11.542Z,23.47
2017-05-16T07:21:52.070Z,23.42
2017-05-16T07:22:32.589Z,23.4
2017-05-16T07:23:13.098Z,23.48
2017-05-16T07:23:53.572Z,23.42
2017-05-16T07:24:34.069Z,23.58
2017-05-16T07:25:14.604Z,23.6
2017-05-16T07:25:55.142Z,23.36
2017-05-16T07:26:35.640Z,23.5
2017-05-16T07:27:16.176Z,23.53
2017-05-16T07:27:56.649Z,23.51
2017-05-16T07:28:37.209Z,23.39
2017-05-16T07:29:17.698Z,23.36
2017-05-16T07:29:58.205Z,23.35
2017-05-16T07:30:38.711Z,23.38
2017-05-16T07:31:19.275Z,23.32
2017-05-16T07:31:59.769Z,23.47
2017-05-16T07:32:40.269Z,23.48
2017-05-16T07:33:20.749Z,23.57
2017-05-16T07:34:01.314Z,23.61
2017-05-16T07:34:41.816Z,23.58
2017-05-16T07:35:22.330Z,23.58
2017-05-16T07:36:02.821Z,23.57
2017-05-16T07:36:43.294Z,23.76
2017-05-16T07:37:23.818Z,23.69
2017-05-16T07:38:04.317Z,23.72
2017-05-16T07:38:44.787Z,23.9
2017-05-16T07:39:25.292Z,23.84
2017-05-16T07:40:05.822Z,23.94
2017-05-16T07:40:46.305Z,24.02
2017-05-16T07:41:26.779Z,23.93
2017-05-16T07:42:07.307Z,23.98
2017-05-16T07:42:47.795Z,24.03
2017-05-16T07:43:28.307Z,24.03
2017-05-16T07:44:08.814Z,23.97
2017-05-16T07:44:49.294Z,23.95
2017-05-16T07:45:29.801Z,23.93
2017-05-16T07:46:10.318Z,24.02
2017-05-16T07:46:50.865Z,24.1
2017-05-16T07:47:31.365Z,24.03
2017-05-16T07:48:11.833Z,23.88
2017-05-16T07:48:52.337Z,23.98
2017-05-16T07:49:32.842Z,24.06
2017-05-16T07:50:13.624Z,24.09
2017-05-16T07:50:53.921Z,24.06
2017-05-16T07:51:34.460Z,23.75
2017-05-16T07:52:14.918Z,23.75
2017-05-16T07:52:55.360Z,23.55
2017-05-16T07:53:35.877Z,23.53
2017-05-16T07:54:16.365Z,23.36
2017-05-16T07:54:56.874Z,23.38
2017-05-16T07:55:37.404Z,23.53
2017-05-16T07:56:17.865Z,23.53
2017-05-16T07:56:58.449Z,23.51
2017-05-16T07:57:38.858Z,23.68
2017-05-16T07:58:19.374Z,23.58
2017-05-16T07:58:59.847Z,23.58
2017-05-16T07:59:40.347Z,23.42
2017-05-16T08:00:20.990Z,23.47
2017-05-16T08:01:01.449Z,23.48
2017-05-16T08:01:41.955Z,23.48
2017-05-16T08:02:22.600Z,23.47
2017-05-16T08:03:02.939Z,23.38
2017-05-16T08:03:43.414Z,23.4
2017-05-16T08:04:23.939Z,23.47
2017-05-16T08:05:04.439Z,23.51
2017-05-16T08:05:45.004Z,23.72
2017-05-16T08:06:25.474Z,23.75
2017-05-16T08:07:05.958Z,23.66
2017-05-16T08:07:46.444Z,23.76
2017-05-16T08:08:26.981Z,23.8
2017-05-16T08:09:07.463Z,23.78
2017-05-16T08:09:47.936Z,23.85
2017-05-16T08:10:28.444Z,23.79
2017-05-16T08:11:08.911Z,23.98
2017-05-16T08:11:49.456Z,24.03
2017-05-16T08:12:29.913Z,24.09
2017-05-16T08:13:10.408Z,24.12
2017-05-16T08:13:50.893Z,24.1
2017-05-16T08:14:31.411Z,24
2017-05-16T08:15:11.871Z,24.08
2017-05-16T08:15:52.386Z,23.97
2017-05-16T08:16:32.964Z,23.93
2017-05-16T08:17:13.354Z,23.93
2017-05-16T08:17:53.846Z,23.87
2017-05-16T08:18:34.359Z,23.66
2017-05-16T08:19:14.864Z,23.65
2017-05-16T08:19:55.397Z,23.76
2017-05-16T08:20:36.206Z,23.83
2017-05-16T08:21:16.799Z,23.78
2017-05-16T08:21:57.232Z,23.73
2017-05-16T08:22:37.760Z,23.72
2017-05-16T08:23:18.273Z,23.73
2017-05-16T08:23:58.800Z,23.73
2017-05-16T08:24:39.252Z,23.75
2017-05-16T08:25:19.857Z,23.8
2017-05-16T08:26:00.390Z,23.85
2017-05-16T08:26:40.882Z,23.91
2017-05-16T08:27:21.363Z,23.88
2017-05-16T08:28:01.848Z,23.97
2017-05-16T08:28:42.324Z,24.03
2017-05-16T08:29:22.866Z,24.1
2017-05-16T08:30:03.373Z,24.1
2017-05-16T08:30:43.837Z,24
2017-05-16T08:31:24.313Z,23.95
2017-05-16T08:32:04.834Z,23.85
2017-05-16T08:32:45.320Z,23.78
2017-05-16T08:33:25.799Z,23.68
2017-05-16T08:34:06.308Z,23.61
2017-05-16T08:34:46.787Z,23.6
2017-05-16T08:35:27.334Z,23.61
2017-05-16T08:36:07.814Z,23.57
2017-05-16T08:36:48.324Z,23.63
2017-05-16T08:37:28.829Z,23.55
2017-05-16T08:38:09.368Z,23.42
2017-05-16T08:38:49.823Z,23.55
2017-05-16T08:39:30.301Z,23.6
2017-05-16T08:40:10.799Z,23.75
2017-05-16T08:40:51.343Z,23.73
2017-05-16T08:41:31.845Z,23.73
2017-05-16T08:42:12.404Z,23.76
2017-05-16T08:42:52.852Z,23.76
2017-05-16T08:43:33.356Z,23.72
2017-05-16T08:44:13.850Z,23.75
2017-05-16T08:44:54.338Z,23.76
2017-05-16T08:45:34.866Z,23.85